Time;durP1;ratioP1;P1;durP2;ratioP2;P2;SDS_P1;SDS_P2;PMS_P1;PMS_P2;Temp;Humidity;BMP_temperature;BMP_pressure;BME280_temperature;BME280_humidity;BME280_pressure;Samples;Min_cycle;Max_cycle;Signal;HPM_P1;HPM_P2
2024/01/25 00:18:39;;;;;;;12.05;6.18;;;;;;;20.36;48.87;100585.94;41412341;28;20133;-69
2024/01/25 00:38:39;;;;;;;9.30;5.40;;;;;;;20.39;48.54;100606.75;41396506;28;20432;-69
2024/01/25 00:58:40;;;;;;;7.13;4.70;;;;;;;20.35;48.34;100604.44;41398438;28;20258;-69
2024/01/25 01:18:41;;;;;;;7.75;4.70;;;;;;;20.25;48.61;100594.56;41398798;28;20093;-69
2024/01/25 01:38:42;;;;;;;6.25;4.18;;;;;;;20.24;48.76;100571.84;41394878;28;20105;-68
2024/01/25 01:58:43;;;;;;;6.82;3.80;;;;;;;20.21;48.52;100573.88;41414538;28;20093;-69
2024/01/25 02:18:48;;;;;;;7.65;3.75;;;;;;;20.26;48.31;100548.06;41310673;28;20478;-69
2024/01/25 02:38:48;;;;;;;6.53;3.25;;;;;;;20.23;47.90;100533.34;41344259;28;20038;-68
2024/01/25 02:58:52;;;;;;;6.20;3.42;;;;;;;20.25;47.71;100531.47;41437593;28;20498;-67
2024/01/25 03:18:54;;;;;;;4.65;2.83;;;;;;;20.25;48.14;100539.34;41420523;28;20104;-69
2024/01/25 03:38:56;;;;;;;5.45;2.90;;;;;;;20.24;47.94;100550.00;41426436;28;20057;-69
2024/01/25 03:58:56;;;;;;;4.03;2.30;;;;;;;20.24;47.86;100545.56;41394207;28;20038;-69
2024/01/25 04:18:58;;;;;;;3.83;2.05;;;;;;;20.15;48.11;100531.28;41373239;28;20043;-67
2024/01/25 04:38:59;;;;;;;4.15;2.17;;;;;;;20.26;47.63;100542.81;41391100;28;20233;-69
2024/01/25 04:59:00;;;;;;;2.70;1.75;;;;;;;20.23;47.70;100567.53;41387411;28;20042;-68
2024/01/25 05:19:00;;;;;;;3.47;2.10;;;;;;;20.65;46.86;100556.69;41375220;28;20058;-71
2024/01/25 05:39:02;;;;;;;6.13;2.05;;;;;;;21.23;47.03;100572.66;41276954;28;20085;-75
2024/01/25 05:59:02;;;;;;;14.80;3.08;;;;;;;21.24;47.09;100574.34;41185755;28;20113;-78
2024/01/25 06:19:05;;;;;;;12.23;3.15;;;;;;;20.98;45.50;100594.69;41198673;28;20046;-71
2024/01/25 06:39:06;;;;;;;10.68;3.00;;;;;;;21.50;44.74;100583.88;41338607;28;20050;-73
2024/01/25 06:59:06;;;;;;;16.50;4.82;;;;;;;21.55;44.58;100550.94;41335256;28;20062;-72
2024/01/25 07:19:07;;;;;;;11.25;3.53;;;;;;;21.54;44.71;100517.63;41332257;28;20081;-73
2024/01/25 07:39:08;;;;;;;11.25;4.03;;;;;;;21.58;44.49;100565.69;41344891;28;20054;-74
2024/01/25 07:59:08;;;;;;;12.80;4.07;;;;;;;21.53;44.82;100575.72;41349310;28;21159;-73
2024/01/25 08:19:09;;;;;;;10.02;3.85;;;;;;;21.63;43.99;100546.91;41328661;28;20050;-70
2024/01/25 08:39:09;;;;;;;12.20;3.33;;;;;;;21.64;43.45;100593.38;41318561;28;20494;-69
2024/01/25 08:59:09;;;;;;;8.57;3.00;;;;;;;21.67;43.19;100612.44;41357108;28;20046;-70
2024/01/25 09:19:11;;;;;;;8.45;3.00;;;;;;;21.74;42.85;100653.19;41327858;28;20573;-69
2024/01/25 09:39:11;;;;;;;5.55;2.67;;;;;;;21.80;42.11;100651.03;41330624;28;20042;-70
2024/01/25 09:59:11;;;;;;;4.82;2.15;;;;;;;21.85;41.59;100685.78;41344175;28;20046;-70
2024/01/25 10:19:13;;;;;;;4.50;1.92;;;;;;;21.85;41.82;100672.63;41283256;28;20106;-70
2024/01/25 10:39:14;;;;;;;4.65;1.98;;;;;;;22.04;41.18;100628.06;41182641;28;20055;-69
2024/01/25 10:59:16;;;;;;;5.40;2.10;;;;;;;22.22;40.79;100643.44;41193783;28;20058;-69
2024/01/25 11:19:22;;;;;;;5.18;1.63;;;;;;;22.23;40.73;100630.13;41187121;28;20046;-69
2024/01/25 11:39:22;;;;;;;3.85;1.58;;;;;;;22.31;40.52;100655.06;41221870;28;20054;-69
2024/01/25 11:59:22;;;;;;;5.32;1.95;;;;;;;22.51;40.23;100635.91;41350653;28;20038;-69
2024/01/25 12:19:23;;;;;;;3.05;1.33;;;;;;;22.68;39.82;100615.25;41348904;28;20060;-68
2024/01/25 12:39:23;;;;;;;4.03;1.55;;;;;;;22.87;39.45;100609.31;41344716;28;20383;-69
2024/01/25 12:59:23;;;;;;;3.28;1.70;;;;;;;23.11;38.75;100581.88;41336448;28;20070;-70
2024/01/25 13:19:24;;;;;;;3.65;1.50;;;;;;;23.12;38.78;100602.00;41286188;28;20099;-69
2024/01/25 13:39:25;;;;;;;8.82;1.77;;;;;;;22.96;39.58;100640.25;41312982;28;20041;-70
2024/01/25 13:59:25;;;;;;;14.80;2.25;;;;;;;22.67;39.60;100639.97;41275556;28;20141;-74
2024/01/25 14:19:26;;;;;;;3.75;1.48;;;;;;;22.45;40.21;100651.34;41366287;28;20401;-72
2024/01/25 14:39:26;;;;;;;7.53;1.67;;;;;;;22.47;39.45;100674.06;41335710;28;20061;-71
2024/01/25 14:59:27;;;;;;;5.55;1.50;;;;;;;22.24;39.61;100678.47;41374381;28;20050;-72
2024/01/25 15:19:27;;;;;;;7.50;1.63;;;;;;;22.12;39.77;100672.31;41367754;28;20133;-72
2024/01/25 15:39:27;;;;;;;6.53;1.55;;;;;;;22.09;39.51;100674.34;41361782;28;21031;-72
2024/01/25 15:59:28;;;;;;;17.13;2.00;;;;;;;21.83;40.12;100683.28;41269955;28;20055;-74
2024/01/25 16:19:28;;;;;;;9.88;1.77;;;;;;;21.47;38.85;100682.44;41203217;28;20085;-72
2024/01/25 16:39:28;;;;;;;14.13;5.78;;;;;;;21.52;37.10;100713.69;41279083;28;20418;-69
2024/01/25 16:59:29;;;;;;;10.10;5.30;;;;;;;21.51;38.71;100726.03;41343612;28;20042;-69
2024/01/25 17:19:30;;;;;;;9.65;4.68;;;;;;;21.50;39.50;100726.16;41333451;28;20062;-71
2024/01/25 17:39:31;;;;;;;7.65;4.00;;;;;;;21.42;40.23;100714.38;41334935;28;20061;-68
2024/01/25 17:59:32;;;;;;;6.60;3.58;;;;;;;21.49;40.76;100717.38;41335679;28;20038;-70
2024/01/25 18:19:35;;;;;;;9.32;3.28;;;;;;;21.44;41.12;100712.44;41378707;28;20958;-72
2024/01/25 18:39:35;;;;;;;7.53;3.30;;;;;;;21.40;41.72;100699.63;41394988;28;20128;-76
2024/01/25 18:59:37;;;;;;;10.07;3.08;;;;;;;21.50;41.81;100715.59;41434289;28;20497;-77
2024/01/25 19:19:39;;;;;;;3.63;2.17;;;;;;;21.58;42.28;100698.31;41392873;28;20057;-79
2024/01/25 19:39:40;;;;;;;5.25;2.42;;;;;;;21.55;42.75;100713.47;41398463;28;20061;-78
2024/01/25 19:59:44;;;;;;;5.10;2.03;;;;;;;21.50;43.19;100757.78;41321730;28;20176;-68
2024/01/25 20:19:46;;;;;;;12.23;2.40;;;;;;;21.34;44.38;100794.91;41340176;28;20493;-70
2024/01/25 20:39:47;;;;;;;9.02;2.33;;;;;;;21.11;43.17;100847.41;41331045;28;20076;-70
2024/01/25 20:59:51;;;;;;;5.88;2.30;;;;;;;21.21;43.99;100853.72;41313693;28;20043;-71
2024/01/25 21:19:51;;;;;;;7.90;2.63;;;;;;;21.24;44.35;100864.03;41326836;28;20049;-71
2024/01/25 21:39:51;;;;;;;4.30;2.00;;;;;;;21.22;44.04;100867.72;41345377;28;20042;-71
2024/01/25 21:59:52;;;;;;;4.63;1.90;;;;;;;21.16;44.13;100884.78;41285567;28;20458;-71
2024/01/25 22:19:52;;;;;;;4.97;1.95;;;;;;;21.13;44.43;100907.88;41352634;28;20567;-74
2024/01/25 22:39:53;;;;;;;4.78;1.92;;;;;;;21.00;45.17;100919.25;41354769;28;20110;-71
2024/01/25 22:59:53;;;;;;;4.20;1.40;;;;;;;21.04;45.27;100912.81;41344297;28;20051;-71
2024/01/25 23:19:54;;;;;;;3.10;1.30;;;;;;;20.99;45.87;100922.00;41343647;28;20047;-72
2024/01/25 23:39:57;;;;;;;2.53;1.70;;;;;;;20.99;45.64;100943.06;41340079;28;20049;-69
2024/01/25 23:59:57;;;;;;;2.13;1.15;;;;;;;20.91;45.60;100933.03;41314771;28;20046;-71
